createdAt,value
2017-12-06T00:00:41.240Z,89.40
2017-12-06T00:01:41.180Z,85.20
2017-12-06T00:02:41.114Z,74.20
2017-12-06T00:03:41.058Z,94.70
2017-12-06T00:04:40.998Z,101.10
2017-12-06T00:05:40.934Z,77.50
2017-12-06T00:06:40.867Z,66.70
2017-12-06T00:07:40.804Z,73.80
2017-12-06T00:08:40.741Z,65.50
2017-12-06T00:09:40.680Z,79.20
2017-12-06T00:10:40.613Z,74.30
2017-12-06T00:11:40.546Z,98.90
2017-12-06T00:12:40.487Z,60.00
2017-12-06T00:13:40.427Z,68.10
2017-12-06T00:14:40.357Z,87.90
2017-12-06T00:15:40.295Z,80.80
2017-12-06T00:16:40.231Z,79.30
2017-12-06T00:17:40.167Z,90.30
2017-12-06T00:18:40.103Z,97.20
2017-12-06T00:19:40.042Z,111.20
2017-12-06T00:20:39.978Z,102.60
2017-12-06T00:21:39.929Z,95.40
2017-12-06T00:22:39.848Z,96.60
2017-12-06T00:23:39.793Z,80.20
2017-12-06T00:24:39.725Z,92.20
2017-12-06T00:25:39.665Z,116.10
2017-12-06T00:26:39.600Z,88.00
2017-12-06T00:27:39.539Z,86.70
2017-12-06T00:28:39.475Z,91.80
2017-12-06T00:29:39.412Z,89.20
2017-12-06T00:30:39.351Z,86.80
2017-12-06T00:31:39.285Z,119.20
2017-12-06T00:32:39.223Z,89.70
2017-12-06T00:33:39.165Z,122.20
2017-12-06T00:34:39.096Z,131.20
2017-12-06T00:35:39.039Z,127.20
2017-12-06T00:36:38.969Z,143.00
2017-12-06T00:37:38.911Z,92.00
2017-12-06T00:38:38.863Z,73.40
2017-12-06T00:39:38.778Z,82.90
2017-12-06T00:40:38.718Z,96.90
2017-12-06T00:41:38.654Z,89.80
2017-12-06T00:42:38.591Z,118.70
2017-12-06T00:43:38.534Z,86.00
2017-12-06T00:44:38.469Z,90.40
2017-12-06T00:45:38.399Z,93.40
2017-12-06T00:46:38.340Z,82.10
2017-12-06T00:47:38.277Z,66.70
2017-12-06T00:48:38.219Z,64.90
2017-12-06T00:49:38.147Z,69.00
2017-12-06T00:50:38.085Z,85.90
2017-12-06T00:51:38.023Z,76.60
2017-12-06T00:52:37.961Z,112.80
2017-12-06T00:53:37.899Z,150.80
2017-12-06T00:54:37.833Z,98.80
2017-12-06T00:55:37.769Z,91.20
2017-12-06T00:56:37.711Z,93.70
2017-12-06T00:57:37.646Z,86.70
2017-12-06T00:58:37.603Z,109.80
2017-12-06T00:59:37.519Z,70.50
2017-12-06T01:00:37.468Z,67.50
2017-12-06T01:01:37.398Z,81.90
2017-12-06T01:02:37.335Z,92.70
2017-12-06T01:03:37.262Z,114.10
2017-12-06T01:04:37.199Z,113.90
2017-12-06T01:05:37.135Z,86.90
2017-12-06T01:06:37.077Z,92.80
2017-12-06T01:07:37.006Z,115.00
2017-12-06T01:08:36.947Z,98.30
2017-12-06T01:09:36.883Z,101.50
2017-12-06T01:10:36.829Z,81.30
2017-12-06T01:11:36.756Z,91.30
2017-12-06T01:12:36.696Z,110.10
2017-12-06T01:13:36.633Z,106.90
2017-12-06T01:14:36.575Z,100.00
2017-12-06T01:15:36.506Z,141.30
2017-12-06T01:16:36.441Z,121.30
2017-12-06T01:17:36.376Z,126.60
2017-12-06T01:18:36.312Z,118.10
2017-12-06T01:19:36.256Z,98.00
2017-12-06T01:20:36.197Z,94.20
2017-12-06T01:21:36.120Z,99.60
2017-12-06T01:22:36.059Z,90.30
2017-12-06T01:23:36.000Z,93.20
2017-12-06T01:24:35.935Z,113.00
2017-12-06T01:25:35.876Z,126.00
2017-12-06T01:26:35.807Z,121.10
2017-12-06T01:27:35.752Z,116.40
2017-12-06T01:28:35.676Z,162.60
2017-12-06T01:29:35.618Z,166.40
2017-12-06T01:30:35.553Z,146.80
2017-12-06T01:31:35.484Z,151.30
2017-12-06T01:32:35.433Z,131.30
2017-12-06T01:33:35.368Z,98.60
2017-12-06T01:34:35.394Z,95.20
2017-12-06T01:35:35.236Z,96.00
2017-12-06T01:36:35.171Z,134.40
2017-12-06T01:37:35.106Z,169.80
2017-12-06T01:38:35.051Z,114.80
2017-12-06T01:39:34.988Z,92.60
2017-12-06T01:40:34.920Z,94.60
2017-12-06T01:41:34.859Z,117.70
2017-12-06T01:42:34.793Z,96.10
2017-12-06T01:43:34.730Z,86.00
2017-12-06T01:44:34.666Z,88.30
2017-12-06T01:45:34.601Z,82.10
2017-12-06T01:46:34.542Z,79.50
2017-12-06T01:47:34.478Z,63.40
2017-12-06T01:48:34.410Z,78.80
2017-12-06T01:49:34.352Z,88.20
2017-12-06T01:50:34.290Z,77.70
2017-12-06T01:51:34.220Z,63.50
2017-12-06T01:52:34.158Z,79.00
2017-12-06T01:53:34.098Z,86.80
2017-12-06T01:54:34.035Z,79.50
2017-12-06T01:55:33.969Z,96.70
2017-12-06T01:56:33.903Z,126.10
2017-12-06T01:57:33.849Z,90.40
2017-12-06T01:58:33.779Z,79.60
2017-12-06T01:59:33.717Z,76.40
2017-12-06T02:00:33.653Z,81.00
2017-12-06T02:01:33.585Z,59.70
2017-12-06T02:02:33.525Z,70.10
2017-12-06T02:03:33.467Z,59.20
2017-12-06T02:04:33.406Z,67.50
2017-12-06T02:05:33.333Z,63.90
2017-12-06T02:06:33.274Z,65.80
2017-12-06T02:07:33.218Z,51.30
2017-12-06T02:08:33.156Z,54.20
2017-12-06T02:09:33.117Z,55.70
2017-12-06T02:10:33.015Z,60.10
2017-12-06T02:11:32.965Z,59.10
2017-12-06T02:12:32.923Z,56.50
2017-12-06T02:13:32.833Z,58.40
2017-12-06T02:14:32.770Z,83.50
2017-12-06T02:15:32.707Z,67.30
2017-12-06T02:16:32.638Z,58.60
2017-12-06T02:17:32.576Z,58.90
2017-12-06T02:18:32.517Z,55.20
2017-12-06T02:19:32.450Z,48.70
2017-12-06T02:20:32.387Z,58.50
2017-12-06T02:21:32.323Z,53.70
2017-12-06T02:22:32.264Z,55.20
2017-12-06T02:23:32.197Z,59.60
2017-12-06T02:24:32.133Z,64.00
2017-12-06T02:25:32.071Z,58.80
2017-12-06T02:26:32.005Z,55.60
2017-12-06T02:27:31.949Z,48.80
2017-12-06T02:28:31.883Z,51.60
2017-12-06T02:29:31.819Z,53.30
2017-12-06T02:30:31.757Z,47.30
2017-12-06T02:31:31.693Z,50.10
2017-12-06T02:32:31.624Z,49.30
2017-12-06T02:33:31.561Z,47.70
2017-12-06T02:34:31.502Z,48.10
2017-12-06T02:35:31.442Z,60.20
2017-12-06T02:36:31.368Z,69.50
2017-12-06T02:37:31.306Z,63.50
2017-12-06T02:38:31.253Z,74.20
2017-12-06T02:39:31.183Z,80.50
2017-12-06T02:40:31.122Z,79.00
2017-12-06T02:41:31.059Z,58.00
2017-12-06T02:42:30.997Z,64.60
2017-12-06T02:43:30.934Z,55.90
2017-12-06T02:44:30.870Z,49.30
2017-12-06T02:45:30.809Z,67.20
2017-12-06T02:46:30.744Z,47.10
2017-12-06T02:47:30.677Z,72.10
2017-12-06T02:48:30.621Z,88.10
2017-12-06T02:49:30.552Z,71.80
2017-12-06T02:50:30.502Z,75.30
2017-12-06T02:51:30.419Z,61.10
2017-12-06T02:52:30.387Z,122.60
2017-12-06T02:53:30.319Z,111.10
2017-12-06T02:54:30.234Z,94.20
2017-12-06T02:55:30.170Z,102.80
2017-12-06T02:56:30.139Z,62.40
2017-12-06T02:57:30.051Z,59.50
2017-12-06T02:58:29.993Z,61.00
2017-12-06T02:59:29.936Z,59.80
2017-12-06T03:00:29.860Z,62.50
2017-12-06T03:01:29.791Z,61.60
2017-12-06T03:02:29.728Z,59.60
2017-12-06T03:03:29.670Z,54.40
2017-12-06T03:04:29.607Z,45.20
2017-12-06T03:05:29.542Z,49.30
2017-12-06T03:06:29.479Z,49.20
2017-12-06T03:07:29.413Z,46.10
2017-12-06T03:08:29.355Z,45.10
2017-12-06T03:09:29.301Z,42.90
2017-12-06T03:10:29.222Z,42.50
2017-12-06T03:11:29.162Z,43.60
2017-12-06T03:12:29.088Z,43.80
2017-12-06T03:13:29.036Z,46.50
2017-12-06T03:14:28.984Z,48.10
2017-12-06T03:15:28.932Z,42.60
2017-12-06T03:16:28.837Z,41.20
2017-12-06T03:17:28.785Z,56.60
2017-12-06T03:18:28.753Z,50.20
2017-12-06T03:19:28.651Z,57.80
2017-12-06T03:20:28.593Z,57.80
2017-12-06T03:21:28.537Z,62.80
2017-12-06T03:22:28.460Z,59.60
2017-12-06T03:23:28.393Z,50.50
2017-12-06T03:24:28.337Z,50.60
2017-12-06T03:25:28.278Z,53.00
2017-12-06T03:26:28.206Z,53.10
2017-12-06T03:27:28.153Z,56.90
2017-12-06T03:28:28.084Z,59.40
2017-12-06T03:29:28.021Z,66.30
2017-12-06T03:30:27.968Z,62.90
2017-12-06T03:31:27.896Z,81.30
2017-12-06T03:32:27.820Z,73.30
2017-12-06T03:33:27.775Z,76.70
2017-12-06T03:34:27.713Z,63.10
2017-12-06T03:35:27.646Z,62.20
2017-12-06T03:36:27.627Z,95.20
2017-12-06T03:37:27.515Z,75.80
2017-12-06T03:38:27.455Z,56.10
2017-12-06T03:39:27.390Z,60.20
2017-12-06T03:40:27.321Z,169.10
2017-12-06T03:41:27.264Z,113.00
2017-12-06T03:42:27.202Z,94.80
2017-12-06T03:43:27.134Z,66.90
2017-12-06T03:44:27.068Z,69.40
2017-12-06T03:45:27.014Z,69.80
2017-12-06T03:46:26.948Z,51.80
2017-12-06T03:47:26.891Z,72.30
2017-12-06T03:48:26.819Z,82.50
2017-12-06T03:49:26.763Z,83.50
2017-12-06T03:50:26.689Z,72.40
2017-12-06T03:51:26.623Z,64.10
2017-12-06T03:52:26.576Z,83.20
2017-12-06T03:53:26.506Z,82.40
2017-12-06T03:54:26.436Z,79.80
2017-12-06T03:55:26.377Z,71.20
2017-12-06T03:56:26.315Z,90.20
2017-12-06T03:57:26.254Z,70.70
2017-12-06T03:58:26.185Z,69.70
2017-12-06T03:59:26.124Z,54.40
2017-12-06T04:00:26.054Z,76.70
2017-12-06T04:01:25.985Z,83.00
2017-12-06T04:02:26.012Z,101.90
2017-12-06T04:03:25.880Z,88.70
2017-12-06T04:04:25.808Z,82.10
2017-12-06T04:05:25.772Z,95.90
2017-12-06T04:06:25.689Z,79.40
2017-12-06T04:07:25.615Z,107.10
2017-12-06T04:08:25.555Z,85.40
2017-12-06T04:09:25.497Z,111.00
2017-12-06T04:10:25.438Z,118.00
2017-12-06T04:11:25.380Z,147.90
2017-12-06T04:12:25.307Z,133.70
2017-12-06T04:13:25.231Z,92.80
2017-12-06T04:14:25.173Z,131.00
2017-12-06T04:15:25.107Z,156.50
2017-12-06T04:16:25.044Z,96.40
2017-12-06T04:17:24.985Z,145.70
2017-12-06T04:18:25.517Z,121.30
2017-12-06T04:19:24.858Z,130.00
2017-12-06T04:20:24.793Z,103.80
2017-12-06T04:21:24.723Z,123.20
2017-12-06T04:22:24.666Z,85.00
2017-12-06T04:23:24.603Z,81.60
2017-12-06T04:24:24.536Z,116.30
2017-12-06T04:25:24.474Z,111.60
2017-12-06T04:26:24.411Z,91.20
2017-12-06T04:27:24.343Z,87.60
2017-12-06T04:28:24.307Z,98.60
2017-12-06T04:29:24.217Z,78.10
2017-12-06T04:30:24.159Z,101.50
2017-12-06T04:31:24.089Z,80.60
2017-12-06T04:32:24.033Z,72.90
2017-12-06T04:33:23.966Z,52.50
2017-12-06T04:34:23.908Z,58.10
2017-12-06T04:35:23.841Z,56.80
2017-12-06T04:36:23.770Z,46.30
2017-12-06T04:37:23.714Z,63.10
2017-12-06T04:38:23.648Z,57.80
2017-12-06T04:39:23.590Z,56.40
2017-12-06T04:40:23.520Z,60.10
2017-12-06T04:41:23.458Z,55.60
2017-12-06T04:42:23.388Z,51.30
2017-12-06T04:43:23.331Z,62.20
2017-12-06T04:44:23.268Z,57.80
2017-12-06T04:45:23.198Z,59.20
2017-12-06T04:46:23.139Z,62.50
2017-12-06T04:47:23.070Z,57.60
2017-12-06T04:48:23.012Z,55.80
2017-12-06T04:49:22.944Z,74.30
2017-12-06T04:50:22.885Z,63.70
2017-12-06T04:51:22.826Z,53.30
2017-12-06T04:52:22.757Z,47.20
2017-12-06T04:53:22.689Z,44.90
2017-12-06T04:54:22.629Z,48.30
2017-12-06T04:55:22.571Z,46.80
2017-12-06T04:56:22.497Z,47.40
2017-12-06T04:57:22.436Z,49.40
2017-12-06T04:58:22.369Z,42.70
2017-12-06T04:59:22.307Z,41.60
2017-12-06T05:00:22.243Z,41.30
2017-12-06T05:01:22.180Z,43.40
2017-12-06T05:02:22.119Z,43.60
2017-12-06T05:03:22.054Z,52.80
2017-12-06T05:04:21.998Z,67.60
2017-12-06T05:05:21.933Z,63.80
2017-12-06T05:06:21.869Z,65.90
2017-12-06T05:07:21.802Z,54.50
2017-12-06T05:08:21.736Z,61.20
2017-12-06T05:09:21.672Z,60.70
2017-12-06T05:10:21.610Z,62.40
2017-12-06T05:11:21.558Z,49.50
2017-12-06T05:12:21.482Z,57.80
2017-12-06T05:13:21.426Z,58.20
2017-12-06T05:14:21.359Z,48.80
2017-12-06T05:15:21.297Z,53.90
2017-12-06T05:16:21.230Z,44.70
2017-12-06T05:17:21.165Z,48.90
2017-12-06T05:18:21.101Z,48.80
2017-12-06T05:19:21.037Z,68.60
2017-12-06T05:20:20.975Z,60.40
2017-12-06T05:21:20.918Z,48.20
2017-12-06T05:22:20.848Z,58.80
2017-12-06T05:23:20.791Z,82.70
2017-12-06T05:24:20.724Z,59.80
2017-12-06T05:25:20.661Z,62.60
2017-12-06T05:26:20.593Z,53.80
2017-12-06T05:27:20.531Z,83.10
2017-12-06T05:28:20.473Z,73.00
2017-12-06T05:29:20.403Z,66.40
2017-12-06T05:30:20.338Z,51.90
2017-12-06T05:31:20.282Z,58.70
2017-12-06T05:32:20.218Z,54.60
2017-12-06T05:33:20.152Z,44.80
2017-12-06T05:34:20.086Z,74.80
2017-12-06T05:35:20.024Z,50.60
2017-12-06T05:36:19.965Z,59.00
2017-12-06T05:37:21.600Z,61.10
2017-12-06T05:38:19.837Z,77.10
2017-12-06T05:39:19.769Z,63.80
2017-12-06T05:40:19.705Z,61.40
2017-12-06T05:41:19.651Z,76.50
2017-12-06T05:42:19.578Z,97.10
2017-12-06T05:43:19.516Z,103.60
2017-12-06T05:44:19.451Z,73.10
2017-12-06T05:45:19.398Z,65.00
2017-12-06T05:46:19.329Z,70.60
2017-12-06T05:47:19.261Z,68.60
2017-12-06T05:48:19.200Z,75.30
2017-12-06T05:49:19.137Z,75.80
2017-12-06T05:50:19.077Z,63.20
2017-12-06T05:51:19.008Z,105.30
2017-12-06T05:52:18.950Z,79.50
2017-12-06T05:53:18.881Z,75.20
2017-12-06T05:54:18.823Z,81.20
2017-12-06T05:55:18.758Z,81.50
2017-12-06T05:56:18.697Z,70.80
2017-12-06T05:57:18.635Z,70.30
2017-12-06T05:58:18.570Z,63.80
2017-12-06T05:59:18.501Z,80.60
2017-12-06T06:00:18.444Z,67.90
2017-12-06T06:01:18.374Z,85.70
2017-12-06T06:02:18.318Z,74.30
2017-12-06T06:03:18.259Z,92.40
2017-12-06T06:04:18.185Z,71.60
2017-12-06T06:05:18.123Z,103.50
2017-12-06T06:06:18.058Z,121.50
2017-12-06T06:07:17.995Z,170.50
2017-12-06T06:08:17.943Z,117.70
2017-12-06T06:09:17.869Z,91.40
2017-12-06T06:10:17.811Z,67.70
2017-12-06T06:11:17.749Z,60.70
2017-12-06T06:12:17.680Z,53.70
2017-12-06T06:13:17.622Z,49.90
2017-12-06T06:14:17.552Z,50.10
2017-12-06T06:15:17.489Z,52.40
2017-12-06T06:16:17.428Z,50.90
2017-12-06T06:17:17.369Z,53.60
2017-12-06T06:18:17.304Z,54.70
2017-12-06T06:19:17.235Z,48.20
2017-12-06T06:20:17.172Z,47.30
2017-12-06T06:21:17.118Z,45.80
2017-12-06T06:22:17.047Z,45.20
2017-12-06T06:23:16.983Z,47.00
2017-12-06T06:24:16.926Z,54.80
2017-12-06T06:25:16.863Z,50.60
2017-12-06T06:26:16.792Z,47.80
2017-12-06T06:27:16.733Z,43.40
2017-12-06T06:28:16.673Z,44.30
2017-12-06T06:29:16.603Z,44.90
2017-12-06T06:30:16.542Z,42.10
2017-12-06T06:31:16.483Z,42.30
2017-12-06T06:32:16.414Z,42.60
2017-12-06T06:33:16.355Z,47.00
2017-12-06T06:34:16.291Z,51.00
2017-12-06T06:36:55.392Z,52.30
2017-12-06T06:37:55.295Z,45.60
2017-12-06T06:39:48.570Z,45.40
2017-12-06T06:40:48.510Z,44.70
2017-12-06T06:42:41.821Z,43.80
2017-12-06T06:43:41.751Z,46.80
2017-12-06T06:45:35.016Z,45.70
2017-12-06T06:46:34.948Z,48.60
2017-12-06T06:48:29.001Z,49.30
2017-12-06T06:49:28.154Z,55.60
2017-12-06T06:51:21.439Z,51.70
2017-12-06T06:52:21.364Z,50.70
2017-12-06T06:54:15.403Z,47.50
2017-12-06T06:55:14.593Z,55.00
2017-12-06T06:57:07.856Z,46.50
2017-12-06T06:58:07.792Z,44.40
2017-12-06T07:00:03.558Z,43.90
2017-12-06T07:01:00.992Z,45.50
2017-12-06T07:02:54.265Z,46.30
2017-12-06T07:03:54.204Z,55.60
2017-12-06T07:05:47.731Z,48.60
2017-12-06T07:06:47.418Z,48.20
2017-12-06T07:08:40.714Z,47.70
2017-12-06T07:09:40.641Z,44.80
2017-12-06T07:11:34.028Z,45.80
2017-12-06T07:12:33.865Z,43.80
2017-12-06T07:14:27.125Z,42.00
2017-12-06T07:15:27.063Z,40.80
2017-12-06T07:17:20.502Z,49.80
2017-12-06T07:18:20.264Z,47.60
2017-12-06T07:20:13.536Z,40.10
2017-12-06T07:21:13.476Z,42.10
2017-12-06T07:23:06.748Z,38.90
2017-12-06T07:24:06.680Z,38.60
2017-12-06T07:25:59.953Z,41.10
2017-12-06T07:26:59.885Z,39.70
2017-12-06T07:28:53.926Z,36.70
2017-12-06T07:29:53.088Z,35.20
2017-12-06T07:30:53.029Z,35.30
2017-12-06T07:31:52.956Z,39.50
2017-12-06T07:32:52.889Z,35.50
2017-12-06T07:33:52.828Z,39.40
2017-12-06T07:34:52.771Z,35.60
2017-12-06T07:35:52.702Z,36.80
2017-12-06T07:36:52.637Z,35.50
2017-12-06T07:37:52.593Z,41.50
2017-12-06T07:38:52.518Z,36.30
2017-12-06T07:39:52.455Z,38.20
2017-12-06T07:40:52.391Z,38.60
2017-12-06T07:41:52.332Z,41.10
2017-12-06T07:42:52.257Z,36.90
2017-12-06T07:43:52.192Z,43.80
2017-12-06T07:44:52.140Z,38.50
2017-12-06T07:45:52.068Z,45.30
2017-12-06T07:46:52.012Z,43.20
2017-12-06T07:47:51.946Z,41.20
2017-12-06T07:48:51.878Z,44.10
2017-12-06T07:49:51.822Z,39.30
2017-12-06T07:50:51.753Z,40.60
2017-12-06T07:51:51.693Z,41.80
2017-12-06T07:52:51.625Z,41.50
2017-12-06T07:53:51.562Z,44.70
2017-12-06T07:54:51.499Z,40.10
2017-12-06T07:55:51.440Z,38.50
2017-12-06T07:56:51.373Z,47.10
2017-12-06T07:57:51.343Z,37.40
2017-12-06T07:58:51.252Z,40.10
2017-12-06T07:59:51.188Z,45.50
2017-12-06T08:00:51.126Z,48.30
2017-12-06T08:01:51.063Z,42.40
2017-12-06T08:02:51.033Z,44.10
2017-12-06T08:03:50.929Z,41.90
2017-12-06T08:04:50.866Z,41.80
2017-12-06T08:05:50.803Z,44.30
2017-12-06T08:06:50.740Z,43.40
2017-12-06T08:07:50.685Z,39.80
2017-12-06T08:08:50.616Z,43.50
2017-12-06T08:09:50.574Z,42.70
2017-12-06T08:10:50.488Z,42.40
2017-12-06T08:11:50.430Z,44.20
2017-12-06T08:12:50.369Z,44.10
2017-12-06T08:13:50.297Z,42.70
2017-12-06T08:14:50.235Z,41.30
2017-12-06T08:15:50.170Z,38.90
2017-12-06T08:16:50.115Z,37.80
2017-12-06T08:17:50.046Z,39.80
2017-12-06T08:18:49.981Z,41.40
2017-12-06T08:19:49.928Z,44.20
2017-12-06T08:20:49.856Z,43.80
2017-12-06T08:21:49.797Z,42.10
2017-12-06T08:22:49.731Z,43.60
2017-12-06T08:23:49.673Z,43.40
2017-12-06T08:24:49.601Z,46.60
2017-12-06T08:25:49.546Z,43.10
2017-12-06T08:26:49.481Z,39.80
2017-12-06T08:27:49.418Z,42.10
2017-12-06T08:28:49.348Z,41.20
2017-12-06T08:29:49.285Z,43.60
2017-12-06T08:30:49.236Z,43.70
2017-12-06T08:31:49.158Z,48.30
2017-12-06T08:32:49.102Z,43.20
2017-12-06T08:33:49.039Z,42.60
2017-12-06T08:34:48.973Z,41.10
2017-12-06T08:35:48.913Z,43.10
2017-12-06T08:36:48.850Z,43.60
2017-12-06T08:37:48.780Z,44.10
2017-12-06T08:38:48.715Z,43.60
2017-12-06T08:39:48.659Z,43.30
2017-12-06T08:40:48.597Z,44.40
2017-12-06T08:41:48.532Z,42.20
2017-12-06T08:42:48.470Z,44.60
2017-12-06T08:43:48.401Z,41.80
2017-12-06T08:44:48.336Z,41.10
2017-12-06T08:45:48.280Z,42.40
2017-12-06T08:46:48.216Z,41.50
2017-12-06T08:47:48.145Z,43.50
2017-12-06T08:48:48.082Z,43.60
2017-12-06T08:49:48.026Z,46.80
2017-12-06T08:50:47.958Z,43.70
2017-12-06T08:51:47.901Z,43.80
2017-12-06T08:52:47.834Z,41.50
2017-12-06T08:53:47.768Z,41.20
2017-12-06T08:54:47.723Z,44.50
2017-12-06T08:55:47.647Z,44.80
2017-12-06T08:56:47.584Z,45.20
2017-12-06T08:57:47.521Z,47.00
2017-12-06T08:58:47.453Z,47.10
2017-12-06T08:59:47.394Z,53.00
2017-12-06T09:00:47.332Z,45.10
2017-12-06T09:01:47.269Z,48.20
2017-12-06T09:02:47.200Z,46.30
2017-12-06T09:03:47.138Z,46.60
2017-12-06T09:04:47.076Z,47.50
2017-12-06T09:05:47.009Z,50.60
2017-12-06T09:06:46.958Z,48.20
2017-12-06T09:07:46.889Z,43.20
2017-12-06T09:08:46.827Z,44.40
2017-12-06T09:09:46.763Z,45.50
2017-12-06T09:10:46.694Z,45.90
2017-12-06T09:11:46.630Z,49.70
2017-12-06T09:12:46.571Z,44.20
2017-12-06T09:13:46.505Z,46.10
2017-12-06T09:14:46.446Z,47.30
2017-12-06T09:15:46.384Z,45.40
2017-12-06T09:16:46.318Z,52.50
2017-12-06T09:17:46.260Z,49.80
2017-12-06T09:18:46.189Z,43.60
2017-12-06T09:19:46.124Z,44.60
2017-12-06T09:20:46.072Z,46.10
2017-12-06T09:21:45.999Z,44.80
2017-12-06T09:22:45.940Z,46.20
2017-12-06T09:23:45.876Z,49.00
2017-12-06T09:24:45.825Z,45.30
2017-12-06T09:25:45.750Z,41.80
2017-12-06T09:26:45.684Z,43.20
2017-12-06T09:27:45.625Z,47.00
2017-12-06T09:28:45.556Z,49.80
2017-12-06T09:29:45.494Z,47.40
2017-12-06T09:30:45.429Z,55.50
2017-12-06T09:31:45.376Z,51.30
2017-12-06T09:32:45.304Z,44.80
2017-12-06T09:33:45.245Z,44.90
2017-12-06T09:34:45.179Z,45.40
2017-12-06T09:35:45.115Z,46.00
2017-12-06T09:36:45.053Z,48.50
2017-12-06T09:37:44.998Z,44.20
2017-12-06T09:38:44.928Z,47.80
2017-12-06T09:39:44.868Z,50.20
2017-12-06T09:40:44.808Z,44.40
2017-12-06T09:41:44.744Z,41.60
2017-12-06T09:42:44.682Z,43.20
2017-12-06T09:43:44.617Z,44.90
2017-12-06T09:44:44.555Z,48.00
2017-12-06T09:45:44.485Z,45.50
2017-12-06T09:46:44.423Z,46.40
2017-12-06T09:47:44.362Z,45.90
2017-12-06T09:48:44.302Z,43.60
2017-12-06T09:49:44.272Z,41.30
2017-12-06T09:50:44.172Z,48.30
2017-12-06T09:51:44.106Z,47.20
2017-12-06T09:52:44.046Z,48.20
2017-12-06T09:53:43.982Z,47.50
2017-12-06T09:54:43.923Z,47.90
2017-12-06T09:55:43.860Z,47.00
2017-12-06T09:56:43.799Z,50.50
2017-12-06T09:57:43.742Z,45.10
2017-12-06T09:58:43.674Z,50.80
2017-12-06T09:59:43.605Z,47.70
2017-12-06T10:00:43.543Z,49.40
2017-12-06T10:01:43.486Z,49.20
2017-12-06T10:02:43.419Z,47.50
2017-12-06T10:03:43.356Z,50.80
2017-12-06T10:04:43.292Z,50.10
2017-12-06T10:05:43.236Z,46.40
2017-12-06T10:06:43.169Z,52.00
2017-12-06T10:07:43.110Z,51.20
2017-12-06T10:08:43.047Z,51.90
2017-12-06T10:09:42.979Z,49.20
2017-12-06T10:10:42.924Z,48.60
2017-12-06T10:11:42.854Z,52.10
2017-12-06T10:12:42.783Z,45.70
2017-12-06T10:13:42.733Z,46.70
2017-12-06T10:14:42.668Z,51.30
2017-12-06T10:15:42.602Z,46.30
2017-12-06T10:16:42.538Z,48.30
2017-12-06T10:17:42.481Z,60.40
2017-12-06T10:18:42.420Z,55.40
2017-12-06T10:19:42.354Z,55.30
2017-12-06T10:20:42.291Z,51.30
2017-12-06T10:21:42.229Z,56.20
2017-12-06T10:22:42.161Z,53.60
2017-12-06T10:23:42.098Z,52.00
2017-12-06T10:24:42.035Z,61.40
2017-12-06T10:25:41.972Z,51.30
2017-12-06T10:26:41.910Z,56.10
2017-12-06T10:27:41.844Z,48.90
2017-12-06T10:28:41.789Z,51.50
2017-12-06T10:29:41.730Z,50.20
2017-12-06T10:30:41.664Z,54.40
2017-12-06T10:31:41.602Z,56.40
2017-12-06T10:32:41.537Z,48.80
2017-12-06T10:33:41.468Z,50.20
2017-12-06T10:34:41.407Z,49.20
2017-12-06T10:35:41.344Z,51.30
2017-12-06T10:36:41.280Z,44.80
2017-12-06T10:37:41.224Z,55.20
2017-12-06T10:38:41.155Z,53.40
2017-12-06T10:39:41.101Z,53.30
2017-12-06T10:40:41.036Z,62.80
2017-12-06T10:41:40.973Z,66.40
2017-12-06T10:42:40.905Z,55.10
2017-12-06T10:43:40.848Z,56.60
2017-12-06T10:44:40.786Z,53.60
2017-12-06T10:45:40.714Z,56.90
2017-12-06T10:46:40.653Z,64.80
2017-12-06T10:47:40.596Z,67.30
2017-12-06T10:48:40.528Z,64.40
2017-12-06T10:49:40.466Z,63.60
2017-12-06T10:50:40.406Z,64.00
2017-12-06T10:51:40.342Z,70.50
2017-12-06T10:52:40.282Z,53.90
2017-12-06T10:53:40.218Z,62.90
2017-12-06T10:54:40.150Z,54.60
2017-12-06T10:55:40.090Z,50.30
2017-12-06T10:56:40.024Z,53.00
2017-12-06T10:57:39.969Z,51.50
2017-12-06T10:58:39.905Z,52.70
2017-12-06T10:59:39.843Z,55.70
2017-12-06T11:00:39.779Z,55.80
2017-12-06T11:01:39.709Z,52.70
2017-12-06T11:02:39.647Z,46.20
2017-12-06T11:03:39.592Z,42.50
2017-12-06T11:04:39.528Z,48.70
2017-12-06T11:05:39.458Z,46.90
2017-12-06T11:06:39.395Z,46.50
2017-12-06T11:07:39.345Z,42.60
2017-12-06T11:08:39.276Z,54.30
2017-12-06T11:09:39.214Z,44.30
2017-12-06T11:10:39.149Z,49.30
2017-12-06T11:11:39.084Z,46.70
2017-12-06T11:12:39.020Z,43.80
2017-12-06T11:13:38.957Z,42.80
2017-12-06T11:14:38.898Z,45.00
2017-12-06T11:15:38.872Z,39.60
2017-12-06T11:16:38.774Z,39.20
2017-12-06T11:17:38.712Z,39.90
2017-12-06T11:18:38.650Z,42.10
2017-12-06T11:19:38.586Z,38.60
2017-12-06T11:20:38.517Z,44.00
2017-12-06T11:21:38.456Z,38.50
2017-12-06T11:22:38.399Z,40.70
2017-12-06T11:23:38.330Z,41.20
2017-12-06T11:24:38.268Z,39.40
2017-12-06T11:25:38.206Z,36.50
2017-12-06T11:26:38.181Z,40.30
2017-12-06T11:27:38.083Z,40.60
2017-12-06T11:28:38.023Z,36.80
2017-12-06T11:29:37.956Z,38.80
2017-12-06T11:30:37.906Z,39.00
2017-12-06T11:31:37.840Z,39.70
2017-12-06T11:32:37.773Z,41.70
2017-12-06T11:33:37.713Z,40.30
2017-12-06T11:34:37.648Z,43.00
2017-12-06T11:35:37.580Z,41.20
2017-12-06T11:36:37.526Z,38.60
2017-12-06T11:37:37.456Z,41.40
2017-12-06T11:38:37.401Z,42.00
2017-12-06T11:39:37.339Z,41.90
2017-12-06T11:40:37.270Z,39.20
2017-12-06T11:41:37.214Z,42.30
2017-12-06T11:42:37.150Z,40.10
2017-12-06T11:43:37.083Z,42.80
2017-12-06T11:44:37.020Z,43.20
2017-12-06T11:45:36.965Z,39.60
2017-12-06T11:46:36.897Z,40.80
2017-12-06T11:47:36.835Z,40.70
2017-12-06T11:48:36.779Z,38.20
2017-12-06T11:49:36.710Z,45.90
2017-12-06T11:50:36.658Z,41.70
2017-12-06T11:51:36.591Z,38.80
2017-12-06T11:52:36.591Z,42.40
2017-12-06T11:53:36.483Z,41.60
2017-12-06T11:54:36.427Z,43.70
2017-12-06T11:55:36.336Z,44.50
2017-12-06T11:56:36.274Z,44.90
2017-12-06T11:57:36.218Z,44.80
2017-12-06T11:58:36.151Z,41.70
2017-12-06T11:59:36.095Z,41.00
2017-12-06T12:00:36.032Z,44.40
2017-12-06T12:01:35.971Z,42.70
2017-12-06T12:02:35.902Z,43.40
2017-12-06T12:03:35.844Z,42.30
2017-12-06T12:04:35.778Z,36.80
2017-12-06T12:05:35.717Z,39.20
2017-12-06T12:06:35.659Z,38.50
2017-12-06T12:07:35.599Z,37.00
2017-12-06T12:08:35.539Z,42.40
2017-12-06T12:09:35.477Z,37.70
2017-12-06T12:10:35.411Z,41.20
2017-12-06T12:11:35.350Z,40.00
2017-12-06T12:12:35.286Z,42.20
2017-12-06T12:13:35.226Z,42.40
2017-12-06T12:14:35.163Z,38.70
2017-12-06T12:15:35.105Z,41.10
2017-12-06T12:16:35.034Z,38.50
2017-12-06T12:17:34.969Z,40.20
2017-12-06T12:18:34.908Z,42.10
2017-12-06T12:19:34.850Z,40.20
2017-12-06T12:20:34.790Z,42.10
2017-12-06T12:21:34.728Z,41.20
2017-12-06T12:22:34.663Z,40.20
2017-12-06T12:23:34.598Z,41.00
2017-12-06T12:24:34.544Z,35.60
2017-12-06T12:25:34.479Z,38.60
2017-12-06T12:26:34.414Z,37.70
2017-12-06T12:27:34.349Z,38.40
2017-12-06T12:28:34.288Z,40.90
2017-12-06T12:29:34.234Z,41.30
2017-12-06T12:30:34.171Z,39.80
2017-12-06T12:31:34.100Z,45.00
2017-12-06T12:32:34.044Z,46.70
2017-12-06T12:33:33.982Z,40.30
2017-12-06T12:34:33.917Z,44.20
2017-12-06T12:35:33.860Z,41.50
2017-12-06T12:36:33.793Z,37.50
2017-12-06T12:37:33.733Z,39.30
2017-12-06T12:38:33.665Z,38.60
2017-12-06T12:39:33.607Z,40.30
2017-12-06T12:40:33.539Z,39.50
2017-12-06T12:41:33.477Z,41.00
2017-12-06T12:42:33.417Z,40.70
2017-12-06T12:43:33.353Z,37.40
2017-12-06T12:44:33.305Z,38.80
2017-12-06T12:45:33.230Z,38.90
2017-12-06T12:46:33.166Z,44.10
2017-12-06T12:47:33.110Z,46.00
2017-12-06T12:48:33.044Z,41.10
2017-12-06T12:49:32.987Z,46.30
2017-12-06T12:50:32.921Z,44.20
2017-12-06T12:51:32.861Z,47.00
2017-12-06T12:52:32.799Z,49.90
2017-12-06T12:53:32.738Z,48.90
2017-12-06T12:54:32.676Z,52.70
2017-12-06T12:55:32.614Z,53.80
2017-12-06T12:56:32.545Z,52.90
2017-12-06T12:57:32.487Z,54.60
2017-12-06T12:58:32.421Z,51.20
2017-12-06T12:59:32.372Z,59.40
2017-12-06T13:00:32.310Z,52.90
2017-12-06T13:01:32.240Z,53.70
2017-12-06T13:02:32.178Z,57.70
2017-12-06T13:03:32.109Z,49.60
2017-12-06T13:04:32.053Z,50.80
2017-12-06T13:05:31.992Z,59.60
2017-12-06T13:06:31.927Z,56.70
2017-12-06T13:07:31.879Z,52.50